Great Diamond Island, Maine
Current Conditions -  °F | °C
As of 11:51 AM on Monday 22 Dec 2014 (Local Time) from KPWM Reporting Station
Broken Clouds Broken Clouds  
Wind Chill: 33°   Ceiling: 5000
Heat Index: 38°   Visibility: 10mi
Dew Point: 30°   Wind: 7mph
Humidity: 73%   Direction: 60°ENE
Pressure: 30.38"   Gusts: NA
Location:  43.6801°N, 70.1969°W
Report Text: KPWM 221651Z 06006KT 10SM FEW020 BKN050 03/M01 A3038 RMK AO2 SLP289 T00331011
Loading
Personal Weather Stations






























Interactive Weather Map New forecast layout! Learn more

10-Day Weather Forecast

Advertisements
Track Severe Weather on mobile